Time;durP1;ratioP1;P1;durP2;ratioP2;P2;SDS_P1;SDS_P2;PMS_P1;PMS_P2;Temp;Humidity;BMP_temperature;BMP_pressure;BME280_temperature;BME280_humidity;BME280_pressure;Samples;Min_cycle;Max_cycle;Signal;HPM_P1;HPM_P2
2021/07/06 00:00:52;;;;;;;3.15;1.10;;;17.40;75.40;;;;;;5083577;28;20577;-65
2021/07/06 00:03:18;;;;;;;2.03;1.13;;;17.40;75.30;;;;;;5098272;27;20036;-65
2021/07/06 00:05:43;;;;;;;5.28;1.20;;;17.40;75.40;;;;;;5086006;27;20024;-65
2021/07/06 00:08:09;;;;;;;3.47;1.10;;;17.30;75.60;;;;;;5084037;28;20024;-65
2021/07/06 00:10:36;;;;;;;3.38;1.13;;;17.30;75.50;;;;;;5082547;27;20036;-65
2021/07/06 00:13:02;;;;;;;4.57;1.25;;;17.30;75.60;;;;;;5080715;28;20052;-65
2021/07/06 00:15:28;;;;;;;5.28;1.50;;;17.20;75.70;;;;;;5081500;27;20032;-65
2021/07/06 00:17:55;;;;;;;1.20;1.10;;;17.20;75.70;;;;;;5082701;28;20380;-65
2021/07/06 00:20:22;;;;;;;1.17;1.08;;;17.20;75.70;;;;;;5083159;27;20168;-65
2021/07/06 00:22:48;;;;;;;3.80;1.15;;;17.10;75.70;;;;;;5081293;27;20046;-65
2021/07/06 00:25:14;;;;;;;2.75;1.40;;;17.10;75.80;;;;;;5083724;28;20036;-65
2021/07/06 00:27:40;;;;;;;4.05;1.40;;;17.10;75.90;;;;;;5082872;27;20028;-65
2021/07/06 00:30:07;;;;;;;2.15;1.55;;;17.10;76.00;;;;;;5082554;28;20043;-65
2021/07/06 00:32:33;;;;;;;5.35;1.58;;;17.10;76.00;;;;;;5083027;27;20028;-65
2021/07/06 00:34:59;;;;;;;2.63;1.20;;;17.00;76.00;;;;;;5079813;27;20028;-65
2021/07/06 00:37:24;;;;;;;1.95;1.20;;;17.00;76.10;;;;;;5081517;28;20609;-65
2021/07/06 00:39:50;;;;;;;2.17;1.10;;;16.90;76.10;;;;;;5082270;27;20094;-65
2021/07/06 00:42:16;;;;;;;4.30;1.05;;;16.90;76.10;;;;;;5084647;28;20040;-65
2021/07/06 00:44:41;;;;;;;6.97;1.33;;;16.90;76.30;;;;;;5082012;27;20057;-66
2021/07/06 00:47:07;;;;;;;1.52;1.20;;;16.90;76.30;;;;;;5082949;27;20047;-65
2021/07/06 00:49:33;;;;;;;2.25;1.08;;;16.80;76.30;;;;;;5080825;28;20123;-65
2021/07/06 00:51:59;;;;;;;2.28;1.08;;;16.80;76.20;;;;;;5079616;28;20103;-65
2021/07/06 00:54:25;;;;;;;1.50;1.00;;;16.80;76.40;;;;;;5083145;27;20103;-65
2021/07/06 00:56:51;;;;;;;4.28;0.88;;;16.80;76.50;;;;;;5086203;28;20074;-65
2021/07/06 00:59:19;;;;;;;3.72;1.10;;;16.80;76.50;;;;;;5082088;27;20079;-65
2021/07/06 01:01:44;;;;;;;3.92;0.98;;;16.80;76.60;;;;;;5078134;28;20126;-65
2021/07/06 01:04:11;;;;;;;2.20;1.20;;;16.80;76.40;;;;;;5081363;28;20111;-65
2021/07/06 01:06:36;;;;;;;3.35;1.30;;;16.80;76.30;;;;;;5082444;27;20124;-65
2021/07/06 01:09:03;;;;;;;5.82;1.50;;;16.80;76.40;;;;;;5077198;27;20127;-65
2021/07/06 01:11:29;;;;;;;6.75;1.70;;;16.80;76.40;;;;;;5079819;28;20509;-66
2021/07/06 01:13:54;;;;;;;2.17;1.50;;;16.70;76.40;;;;;;5081670;27;20031;-65
2021/07/06 01:16:20;;;;;;;2.58;1.42;;;16.70;76.40;;;;;;5081581;28;20467;-65
2021/07/06 01:18:45;;;;;;;4.93;1.50;;;16.70;76.60;;;;;;5085298;27;20051;-65
2021/07/06 01:21:13;;;;;;;6.75;1.50;;;16.60;76.60;;;;;;5082297;27;20628;-65
2021/07/06 01:23:38;;;;;;;4.90;1.65;;;16.60;76.60;;;;;;5079876;28;20568;-65
2021/07/06 01:26:07;;;;;;;6.78;1.52;;;16.60;76.60;;;;;;5079056;28;20119;-65
2021/07/06 01:28:33;;;;;;;7.03;1.70;;;16.50;76.80;;;;;;5077363;27;20036;-65
2021/07/06 01:31:00;;;;;;;2.80;1.48;;;16.50;76.70;;;;;;5080877;28;20119;-65
2021/07/06 01:33:27;;;;;;;2.55;1.20;;;16.40;76.60;;;;;;5083907;27;20055;-65
2021/07/06 01:35:57;;;;;;;5.93;1.30;;;16.40;76.90;;;;;;5081225;28;20080;-65
2021/07/06 01:38:22;;;;;;;8.82;1.40;;;16.40;76.90;;;;;;5082544;28;20047;-66
2021/07/06 01:40:48;;;;;;;7.95;1.50;;;16.40;76.90;;;;;;5083749;27;20032;-65
2021/07/06 01:43:14;;;;;;;5.53;1.55;;;16.30;76.80;;;;;;5085268;28;20036;-65
2021/07/06 01:45:41;;;;;;;4.88;1.90;;;16.30;76.90;;;;;;5096566;27;20044;-65
2021/07/06 01:48:07;;;;;;;6.25;1.50;;;16.30;77.20;;;;;;5080882;27;20056;-65
2021/07/06 01:50:38;;;;;;;3.25;2.03;;;16.30;77.20;;;;;;5084705;27;20563;-65
2021/07/06 01:53:07;;;;;;;8.35;3.30;;;16.20;77.10;;;;;;5082405;27;20032;-64
2021/07/06 01:55:38;;;;;;;8.32;3.05;;;16.20;77.10;;;;;;5083632;27;20035;-65
2021/07/06 01:58:07;;;;;;;7.57;3.25;;;16.20;77.20;;;;;;5099239;27;20119;-65
2021/07/06 02:00:35;;;;;;;6.28;2.22;;;16.20;77.40;;;;;;5083147;27;20614;-65
2021/07/06 02:03:02;;;;;;;5.22;2.47;;;16.10;77.50;;;;;;5080502;28;20040;-65
2021/07/06 02:05:29;;;;;;;4.05;1.60;;;16.10;77.50;;;;;;5089058;27;20097;-67
2021/07/06 02:07:55;;;;;;;3.50;1.70;;;16.10;77.60;;;;;;5083058;28;20028;-65
2021/07/06 02:10:22;;;;;;;2.38;1.75;;;16.10;77.70;;;;;;5081493;27;20085;-66
2021/07/06 02:12:48;;;;;;;2.33;1.65;;;16.00;77.90;;;;;;5078295;27;20339;-65
2021/07/06 02:15:15;;;;;;;2.58;1.42;;;16.00;77.90;;;;;;5081084;28;20058;-65
2021/07/06 02:17:43;;;;;;;1.67;1.52;;;15.90;78.00;;;;;;5080398;27;20063;-65
2021/07/06 02:20:11;;;;;;;2.40;1.40;;;15.90;78.00;;;;;;5081564;28;20036;-65
2021/07/06 02:22:39;;;;;;;3.08;1.48;;;15.90;78.40;;;;;;5082673;27;20530;-65
2021/07/06 02:25:06;;;;;;;1.25;1.15;;;15.90;78.50;;;;;;5084217;27;20028;-65
2021/07/06 02:27:32;;;;;;;1.40;1.30;;;15.80;78.60;;;;;;5084454;28;20495;-65
2021/07/06 02:29:58;;;;;;;2.05;1.50;;;15.80;78.60;;;;;;5078041;27;20040;-66
2021/07/06 02:32:24;;;;;;;3.33;1.58;;;15.80;78.70;;;;;;5081566;27;20081;-65
2021/07/06 02:34:50;;;;;;;3.45;2.10;;;15.80;78.70;;;;;;5085564;28;20032;-65
2021/07/06 02:37:15;;;;;;;4.35;2.60;;;15.80;78.90;;;;;;5086348;27;20039;-65
2021/07/06 02:39:41;;;;;;;9.82;3.10;;;15.90;79.20;;;;;;5086324;28;20036;-66
2021/07/06 02:42:07;;;;;;;6.72;2.70;;;15.90;79.30;;;;;;5088569;27;20071;-65
2021/07/06 02:44:33;;;;;;;7.25;2.20;;;15.90;79.30;;;;;;5084681;27;20032;-65
2021/07/06 02:46:58;;;;;;;12.15;2.10;;;15.90;79.30;;;;;;5084995;28;20525;-65
2021/07/06 02:49:24;;;;;;;5.32;1.80;;;15.90;79.30;;;;;;5082123;28;20032;-65
2021/07/06 02:51:49;;;;;;;8.18;1.85;;;15.90;79.30;;;;;;5086938;28;20077;-65
2021/07/06 02:54:15;;;;;;;2.92;2.30;;;15.90;79.30;;;;;;5103185;27;20036;-65
2021/07/06 02:56:40;;;;;;;2.10;1.90;;;15.90;79.30;;;;;;5083826;27;20035;-65
2021/07/06 02:59:06;;;;;;;4.70;1.70;;;15.90;79.40;;;;;;5083323;28;20151;-65
2021/07/06 03:01:32;;;;;;;10.30;1.95;;;15.90;79.40;;;;;;5085844;27;20503;-65
2021/07/06 03:03:57;;;;;;;4.93;1.50;;;15.90;79.30;;;;;;5083227;28;20032;-65
2021/07/06 03:06:23;;;;;;;11.60;1.30;;;15.90;79.30;;;;;;5084724;27;20036;-65
2021/07/06 03:08:52;;;;;;;3.65;1.30;;;15.90;79.40;;;;;;5098055;27;20051;-65
2021/07/06 03:11:17;;;;;;;1.25;1.23;;;15.90;79.40;;;;;;5085756;28;20044;-65
2021/07/06 03:13:43;;;;;;;3.85;1.20;;;15.90;79.40;;;;;;5086916;27;20026;-65
2021/07/06 03:16:09;;;;;;;2.25;1.30;;;15.90;79.50;;;;;;5083391;28;20032;-65
2021/07/06 03:18:34;;;;;;;3.20;1.38;;;15.90;79.70;;;;;;5080874;27;20090;-66
2021/07/06 03:21:00;;;;;;;1.77;1.48;;;15.80;79.80;;;;;;5097164;28;20036;-65
2021/07/06 03:23:28;;;;;;;6.75;1.40;;;15.90;80.10;;;;;;5083737;28;20495;-66
2021/07/06 03:25:53;;;;;;;1.33;1.23;;;15.90;80.00;;;;;;5085668;27;20419;-65
2021/07/06 03:28:19;;;;;;;4.25;1.40;;;15.90;80.00;;;;;;5087489;28;20028;-65
2021/07/06 03:30:45;;;;;;;4.78;1.70;;;15.90;80.10;;;;;;5084082;27;20043;-65
2021/07/06 03:33:11;;;;;;;2.55;1.70;;;16.00;80.10;;;;;;5085210;27;20052;-65
2021/07/06 03:35:38;;;;;;;2.25;1.20;;;16.00;80.10;;;;;;5081687;28;20139;-65
2021/07/06 03:38:05;;;;;;;2.80;1.48;;;16.00;80.10;;;;;;5079473;28;20048;-65
2021/07/06 03:40:33;;;;;;;1.60;1.50;;;16.00;80.00;;;;;;5086786;27;20025;-65
2021/07/06 03:42:58;;;;;;;8.07;1.58;;;16.00;80.10;;;;;;5080930;28;20040;-65
2021/07/06 03:45:24;;;;;;;4.43;1.48;;;16.10;80.10;;;;;;5080124;27;20046;-65
2021/07/06 03:47:51;;;;;;;2.97;1.42;;;16.10;79.90;;;;;;5080162;28;20120;-65
2021/07/06 03:50:20;;;;;;;1.45;1.35;;;16.10;79.70;;;;;;5080141;27;20043;-65
2021/07/06 03:52:50;;;;;;;4.03;1.35;;;16.10;79.60;;;;;;5083930;27;20131;-65
2021/07/06 03:55:16;;;;;;;1.52;1.42;;;16.10;80.00;;;;;;5082501;28;20051;-65
2021/07/06 03:57:43;;;;;;;2.63;1.50;;;16.10;79.70;;;;;;5085773;27;20095;-65
2021/07/06 04:00:11;;;;;;;6.70;1.80;;;16.20;79.80;;;;;;5080118;28;20127;-65
2021/07/06 04:02:38;;;;;;;13.38;1.90;;;16.10;79.90;;;;;;5078679;27;20595;-65
2021/07/06 04:05:09;;;;;;;1.80;1.70;;;16.20;80.00;;;;;;5080194;27;20047;-65
2021/07/06 04:07:38;;;;;;;1.75;1.65;;;16.20;80.10;;;;;;5083506;28;20077;-65
2021/07/06 04:10:06;;;;;;;4.25;1.60;;;16.20;79.80;;;;;;5085307;27;20119;-64
2021/07/06 04:12:32;;;;;;;2.20;2.00;;;16.20;79.80;;;;;;5081928;27;20032;-65
2021/07/06 04:14:57;;;;;;;15.80;2.10;;;16.30;79.80;;;;;;5086627;27;20034;-65
2021/07/06 04:17:23;;;;;;;20.08;6.65;;;16.30;79.80;;;;;;5083319;28;20395;-65
2021/07/06 04:19:48;;;;;;;5.93;2.80;;;16.30;80.00;;;;;;5080604;28;20043;-65
2021/07/06 04:22:14;;;;;;;15.85;2.08;;;16.30;79.80;;;;;;5083148;27;20121;-65
2021/07/06 04:24:40;;;;;;;9.38;1.63;;;16.40;80.00;;;;;;5081722;27;20521;-65
2021/07/06 04:27:06;;;;;;;5.60;1.40;;;16.40;80.00;;;;;;5086489;28;20028;-65
2021/07/06 04:29:31;;;;;;;8.60;1.58;;;16.40;80.00;;;;;;5079172;28;20032;-65
2021/07/06 04:31:57;;;;;;;8.45;1.88;;;16.40;80.00;;;;;;5086243;28;20403;-65
2021/07/06 04:34:24;;;;;;;5.72;1.20;;;16.40;80.00;;;;;;5085278;27;20048;-66
2021/07/06 04:36:50;;;;;;;16.77;1.70;;;16.40;80.00;;;;;;5083139;27;20052;-65
2021/07/06 04:39:16;;;;;;;17.85;1.80;;;16.50;79.90;;;;;;5085013;28;20075;-65
2021/07/06 04:41:43;;;;;;;1.55;1.42;;;16.50;79.80;;;;;;5085054;27;20036;-65
2021/07/06 04:44:09;;;;;;;2.97;1.40;;;16.50;79.90;;;;;;5086022;28;20051;-65
2021/07/06 04:46:34;;;;;;;4.70;1.52;;;16.50;79.80;;;;;;5086582;27;20491;-66
2021/07/06 04:49:00;;;;;;;2.90;1.40;;;16.50;79.90;;;;;;5079305;28;20036;-65
2021/07/06 04:51:27;;;;;;;2.75;1.48;;;16.50;80.00;;;;;;5086995;28;20138;-64
2021/07/06 04:53:52;;;;;;;4.00;1.52;;;16.60;80.10;;;;;;5082763;27;20032;-65
2021/07/06 04:56:19;;;;;;;5.80;1.95;;;16.60;80.10;;;;;;5085426;28;20033;-65
2021/07/06 04:58:44;;;;;;;5.63;1.70;;;16.60;80.20;;;;;;5086158;27;20079;-65
2021/07/06 05:01:10;;;;;;;1.33;1.20;;;16.60;80.10;;;;;;5086333;27;20510;-65
2021/07/06 05:03:37;;;;;;;1.40;1.30;;;16.70;80.20;;;;;;5085021;28;20379;-64
2021/07/06 05:06:03;;;;;;;1.00;1.00;;;16.70;80.10;;;;;;5086702;28;20399;-65
2021/07/06 05:08:28;;;;;;;1.45;1.20;;;16.70;80.10;;;;;;5078819;27;20036;-65
2021/07/06 05:10:56;;;;;;;0.90;0.90;;;16.80;80.30;;;;;;5083027;28;20044;-65
2021/07/06 05:13:24;;;;;;;1.75;1.30;;;16.80;80.30;;;;;;5083526;27;20498;-66
2021/07/06 05:15:51;;;;;;;1.90;1.50;;;16.80;80.30;;;;;;5086635;28;20063;-65
2021/07/06 05:18:16;;;;;;;1.33;1.25;;;16.90;80.30;;;;;;5087574;27;20043;-65
2021/07/06 05:20:42;;;;;;;1.50;1.40;;;16.90;80.30;;;;;;5093437;27;20044;-66
2021/07/06 05:23:08;;;;;;;1.40;1.30;;;16.90;80.90;;;;;;5078940;28;20438;-65
2021/07/06 05:25:33;;;;;;;3.78;1.52;;;16.90;80.80;;;;;;5086189;27;20089;-65
2021/07/06 05:27:59;;;;;;;4.88;1.50;;;16.90;80.80;;;;;;5086978;28;20039;-65
2021/07/06 05:30:25;;;;;;;1.40;1.30;;;16.90;80.70;;;;;;5086290;27;20127;-65
2021/07/06 05:32:51;;;;;;;2.20;1.60;;;16.90;80.90;;;;;;5078971;27;20507;-66
2021/07/06 05:35:16;;;;;;;2.55;1.50;;;16.90;81.00;;;;;;5092992;27;20036;-66
2021/07/06 05:37:42;;;;;;;6.68;1.40;;;16.90;81.00;;;;;;5078755;27;20153;-65
2021/07/06 05:40:10;;;;;;;1.63;1.52;;;17.00;80.90;;;;;;5081170;28;20067;-65
2021/07/06 05:42:37;;;;;;;1.48;1.30;;;17.00;80.90;;;;;;5075220;28;20402;-65
2021/07/06 05:45:04;;;;;;;1.75;1.65;;;17.10;81.30;;;;;;5080259;27;20606;-64
2021/07/06 05:47:35;;;;;;;1.98;1.63;;;17.10;81.30;;;;;;5079619;28;20032;-65
2021/07/06 05:50:08;;;;;;;2.58;1.48;;;17.20;81.40;;;;;;5078521;27;20127;-65
2021/07/06 05:52:34;;;;;;;1.50;1.40;;;17.20;81.50;;;;;;5081155;27;20035;-65
2021/07/06 05:55:01;;;;;;;1.50;1.40;;;17.30;81.30;;;;;;5082189;28;20551;-66
2021/07/06 05:57:30;;;;;;;1.55;1.20;;;17.30;81.50;;;;;;5085995;27;20067;-65
2021/07/06 05:59:57;;;;;;;1.40;1.30;;;17.40;81.60;;;;;;5083516;28;20128;-66
2021/07/06 06:02:23;;;;;;;2.75;1.17;;;17.50;81.90;;;;;;5084889;27;20055;-66
2021/07/06 06:04:48;;;;;;;1.45;1.35;;;17.60;81.80;;;;;;5085431;27;20036;-66
2021/07/06 06:07:14;;;;;;;1.40;1.30;;;17.70;81.50;;;;;;5086757;28;20507;-65
2021/07/06 06:09:39;;;;;;;1.52;1.42;;;17.80;81.40;;;;;;5085392;27;20143;-65
2021/07/06 06:12:05;;;;;;;2.20;1.30;;;17.90;81.60;;;;;;5087667;28;20042;-65
2021/07/06 06:14:31;;;;;;;1.92;1.42;;;18.00;81.40;;;;;;5089992;27;20568;-66
2021/07/06 06:16:56;;;;;;;1.52;1.30;;;18.10;81.10;;;;;;5088322;27;20036;-65
2021/07/06 06:19:22;;;;;;;1.48;1.38;;;18.20;80.60;;;;;;5089881;28;20036;-65
2021/07/06 06:21:48;;;;;;;1.65;1.20;;;18.30;80.60;;;;;;5087733;27;20468;-65
2021/07/06 06:24:13;;;;;;;1.60;1.45;;;18.40;80.80;;;;;;5087272;28;20029;-66
2021/07/06 06:26:39;;;;;;;1.88;1.20;;;18.40;80.60;;;;;;5085839;28;20036;-65
2021/07/06 06:29:05;;;;;;;2.28;1.15;;;18.50;80.30;;;;;;5088838;27;20082;-65
2021/07/06 06:31:30;;;;;;;3.65;1.30;;;18.60;80.30;;;;;;5087670;28;20442;-66
2021/07/06 06:33:56;;;;;;;1.88;1.48;;;18.70;80.30;;;;;;5089139;27;20039;-65
2021/07/06 06:36:21;;;;;;;1.70;1.60;;;18.70;80.20;;;;;;5089549;28;20043;-65
2021/07/06 06:38:47;;;;;;;1.95;1.63;;;18.80;80.10;;;;;;5086851;28;20107;-66
2021/07/06 06:41:13;;;;;;;3.55;1.55;;;18.90;80.10;;;;;;5088406;27;20054;-66
2021/07/06 06:43:38;;;;;;;1.52;1.38;;;18.90;80.30;;;;;;5086805;28;20032;-66
2021/07/06 06:46:04;;;;;;;1.88;1.65;;;19.00;80.20;;;;;;5088484;27;20333;-65
2021/07/06 06:48:30;;;;;;;1.65;1.55;;;19.00;80.30;;;;;;5095531;27;20028;-65
2021/07/06 06:50:56;;;;;;;2.38;1.70;;;19.10;80.30;;;;;;5087086;28;20051;-65
2021/07/06 06:53:22;;;;;;;3.33;1.50;;;19.20;80.50;;;;;;5086443;27;20528;-65
2021/07/06 06:55:47;;;;;;;2.97;1.90;;;19.20;80.30;;;;;;5087656;28;20125;-65
2021/07/06 06:58:13;;;;;;;3.30;1.80;;;19.30;80.30;;;;;;5089065;28;20035;-65
2021/07/06 07:00:39;;;;;;;2.20;1.90;;;19.40;80.30;;;;;;5085576;27;20417;-65
2021/07/06 07:03:04;;;;;;;2.17;1.85;;;19.40;80.20;;;;;;5081882;28;20606;-64
2021/07/06 07:05:30;;;;;;;1.92;1.73;;;19.50;80.30;;;;;;5088637;27;20039;-65
2021/07/06 07:07:57;;;;;;;2.38;1.70;;;19.60;80.30;;;;;;5087291;27;20064;-66
2021/07/06 07:10:24;;;;;;;2.95;1.48;;;19.70;80.30;;;;;;5086102;27;20032;-65
2021/07/06 07:12:50;;;;;;;1.88;1.77;;;19.70;80.10;;;;;;5085410;28;20359;-66
2021/07/06 07:15:16;;;;;;;2.80;1.80;;;19.90;80.10;;;;;;5089161;28;20055;-66
2021/07/06 07:17:42;;;;;;;1.55;1.45;;;20.00;80.30;;;;;;5087997;27;20156;-65
2021/07/06 07:20:10;;;;;;;1.98;1.50;;;20.10;80.10;;;;;;5103997;27;20039;-65
2021/07/06 07:22:35;;;;;;;2.45;1.50;;;20.20;79.90;;;;;;5086105;27;20097;-66
2021/07/06 07:25:02;;;;;;;1.95;1.70;;;20.30;79.60;;;;;;5088276;27;20701;-65
2021/07/06 07:27:27;;;;;;;4.07;1.48;;;20.30;79.30;;;;;;5085072;28;20047;-66
2021/07/06 07:29:53;;;;;;;2.20;1.50;;;20.50;79.40;;;;;;5086991;27;20028;-66
2021/07/06 07:32:18;;;;;;;2.03;1.42;;;20.50;79.10;;;;;;5086819;28;20123;-65
2021/07/06 07:34:44;;;;;;;2.45;1.40;;;20.70;78.90;;;;;;5086407;28;20028;-66
2021/07/06 07:37:10;;;;;;;1.75;1.33;;;20.80;78.70;;;;;;5079262;28;20097;-65
2021/07/06 07:39:37;;;;;;;3.00;1.50;;;20.90;78.80;;;;;;5087992;28;20033;-65
2021/07/06 07:42:04;;;;;;;1.50;1.35;;;21.00;79.20;;;;;;5083568;27;20058;-65
2021/07/06 07:44:31;;;;;;;1.50;1.02;;;21.20;78.90;;;;;;5083130;27;20090;-66
2021/07/06 07:46:57;;;;;;;1.25;1.10;;;21.30;78.40;;;;;;5086555;27;20067;-65
2021/07/06 07:49:22;;;;;;;2.15;1.00;;;21.40;78.40;;;;;;5086328;27;20462;-64
2021/07/06 07:51:48;;;;;;;2.10;1.42;;;21.60;78.00;;;;;;5087779;28;20056;-66
2021/07/06 07:54:14;;;;;;;2.53;1.38;;;21.70;77.70;;;;;;5088433;27;20028;-66
2021/07/06 07:56:41;;;;;;;3.17;1.10;;;21.90;77.70;;;;;;5084959;27;20040;-66
2021/07/06 07:59:10;;;;;;;1.85;1.20;;;22.00;77.30;;;;;;5086139;28;20031;-65
2021/07/06 08:01:37;;;;;;;3.00;1.30;;;22.20;77.20;;;;;;5087736;27;20036;-65
2021/07/06 08:04:03;;;;;;;1.17;1.05;;;22.30;76.70;;;;;;5084549;28;20395;-66
2021/07/06 08:06:29;;;;;;;2.55;1.40;;;22.40;76.00;;;;;;5087035;27;20036;-66
2021/07/06 08:08:54;;;;;;;4.13;1.20;;;22.50;76.00;;;;;;5086218;27;20111;-66
2021/07/06 08:11:21;;;;;;;2.88;1.50;;;22.70;76.10;;;;;;5084848;28;20036;-65
2021/07/06 08:13:46;;;;;;;2.60;1.20;;;22.80;75.70;;;;;;5084176;27;20297;-66
2021/07/06 08:16:12;;;;;;;2.05;1.23;;;23.00;75.20;;;;;;5087010;28;20024;-65
2021/07/06 08:18:38;;;;;;;1.27;1.17;;;23.10;74.00;;;;;;5085561;27;20039;-66
2021/07/06 08:21:04;;;;;;;1.80;0.77;;;23.20;74.00;;;;;;5088647;27;20016;-66
2021/07/06 08:23:30;;;;;;;1.60;0.95;;;23.30;73.70;;;;;;5091959;28;20411;-66
2021/07/06 08:25:56;;;;;;;1.15;0.90;;;23.50;74.00;;;;;;5087157;27;20032;-66
2021/07/06 08:28:22;;;;;;;0.80;0.80;;;23.60;73.50;;;;;;5085464;28;20032;-66
2021/07/06 08:30:49;;;;;;;3.03;0.90;;;23.70;73.20;;;;;;5084657;28;20408;-66
2021/07/06 08:33:15;;;;;;;1.13;0.90;;;23.90;73.20;;;;;;5084179;27;21110;-66
2021/07/06 08:35:41;;;;;;;1.35;0.65;;;24.00;71.70;;;;;;5083692;28;20044;-66
2021/07/06 08:38:07;;;;;;;0.85;0.70;;;24.20;72.30;;;;;;5088108;27;20384;-66
2021/07/06 08:40:32;;;;;;;2.47;1.00;;;24.30;72.00;;;;;;5085923;27;20032;-66
2021/07/06 08:43:01;;;;;;;0.82;0.80;;;24.50;71.50;;;;;;5100698;27;20111;-66
2021/07/06 08:45:28;;;;;;;2.80;0.80;;;24.60;70.50;;;;;;5099245;27;20046;-66
2021/07/06 08:47:55;;;;;;;3.50;1.00;;;24.70;70.60;;;;;;5084218;28;20494;-66
2021/07/06 08:50:22;;;;;;;1.10;0.70;;;24.90;69.90;;;;;;5086061;27;20086;-66
2021/07/06 08:52:48;;;;;;;1.35;0.80;;;25.00;69.20;;;;;;5084186;28;20050;-66
2021/07/06 08:55:15;;;;;;;1.42;0.98;;;25.10;68.50;;;;;;5086166;28;20499;-66
2021/07/06 08:57:42;;;;;;;1.77;0.80;;;25.30;68.00;;;;;;5086480;27;20127;-66
2021/07/06 09:00:09;;;;;;;0.80;0.80;;;25.40;69.30;;;;;;5084961;28;20410;-66
2021/07/06 09:02:35;;;;;;;2.10;1.00;;;25.60;69.20;;;;;;5085334;27;20036;-66
2021/07/06 09:05:00;;;;;;;2.45;0.90;;;25.70;67.20;;;;;;5086356;27;20032;-66
2021/07/06 09:07:42;;;;;;;1.63;0.88;;;25.80;66.10;;;;;;5086191;28;20135;-66
2021/07/06 09:10:16;;;;;;;1.00;0.75;;;25.80;65.50;;;;;;5084951;27;20039;-67
2021/07/06 09:12:44;;;;;;;1.73;0.77;;;26.00;65.80;;;;;;5083257;27;20063;-66
2021/07/06 09:15:26;;;;;;;2.38;0.77;;;26.00;66.50;;;;;;5083031;28;20035;-66
2021/07/06 09:18:16;;;;;;;2.70;0.65;;;26.10;66.60;;;;;;5083266;27;20115;-66
2021/07/06 09:20:57;;;;;;;1.85;0.80;;;26.20;64.90;;;;;;5085059;27;20048;-66
2021/07/06 09:23:37;;;;;;;0.77;0.70;;;26.30;63.00;;;;;;5084659;28;20028;-66
2021/07/06 09:26:25;;;;;;;2.05;0.77;;;26.40;64.00;;;;;;5087433;27;20024;-66
2021/07/06 09:28:53;;;;;;;1.80;0.40;;;26.50;63.10;;;;;;5087338;27;20415;-66
2021/07/06 09:31:33;;;;;;;1.05;0.50;;;26.60;63.40;;;;;;5084738;28;20040;-66
2021/07/06 09:34:05;;;;;;;0.98;0.47;;;26.70;61.00;;;;;;5085416;27;20056;-66
2021/07/06 09:36:38;;;;;;;0.95;0.70;;;26.80;62.00;;;;;;5083979;27;20039;-66
2021/07/06 09:39:24;;;;;;;0.57;0.57;;;26.80;61.60;;;;;;5086523;28;20077;-66
2021/07/06 09:41:59;;;;;;;0.70;0.70;;;27.00;61.30;;;;;;5084895;27;20077;-66
2021/07/06 09:44:37;;;;;;;2.35;1.17;;;27.10;61.20;;;;;;5088268;27;20028;-67
2021/07/06 09:47:11;;;;;;;1.25;0.85;;;27.10;61.30;;;;;;5087180;28;20032;-66
2021/07/06 09:49:40;;;;;;;1.35;0.73;;;27.20;60.20;;;;;;5090938;27;20063;-66
2021/07/06 09:52:17;;;;;;;1.45;1.00;;;27.30;61.00;;;;;;5088514;28;20403;-66
2021/07/06 09:54:54;;;;;;;1.45;0.90;;;27.30;58.90;;;;;;5090091;27;20040;-66
2021/07/06 09:59:56;;;;;;;1.77;0.90;;;27.40;59.20;;;;;;5091312;27;20032;-66
2021/07/06 10:02:24;;;;;;;1.40;1.00;;;27.40;59.20;;;;;;5083828;28;20225;-66
2021/07/06 10:04:54;;;;;;;0.90;0.70;;;27.40;59.50;;;;;;5087727;28;20042;-66
2021/07/06 10:07:24;;;;;;;1.48;0.80;;;27.50;59.40;;;;;;5104353;27;20062;-66
2021/07/06 10:09:50;;;;;;;0.85;0.57;;;27.60;58.90;;;;;;5091054;27;20075;-66
2021/07/06 10:12:17;;;;;;;0.45;0.40;;;27.60;57.60;;;;;;5086590;27;20036;-66
2021/07/06 10:14:44;;;;;;;1.83;0.45;;;27.70;57.00;;;;;;5086744;27;20056;-66
2021/07/06 10:17:11;;;;;;;0.55;0.43;;;27.80;56.40;;;;;;5087767;28;20103;-66
2021/07/06 10:19:39;;;;;;;1.42;0.32;;;27.80;56.70;;;;;;5089294;28;20032;-66
2021/07/06 10:22:07;;;;;;;0.50;0.50;;;27.90;55.50;;;;;;5086840;27;20510;-66
2021/07/06 10:24:40;;;;;;;0.50;0.50;;;28.00;55.20;;;;;;5088265;27;20039;-66
2021/07/06 10:27:12;;;;;;;0.60;0.38;;;28.10;54.70;;;;;;5090152;28;20067;-67
2021/07/06 10:29:40;;;;;;;0.40;0.38;;;28.20;54.70;;;;;;5089083;27;20036;-66
2021/07/06 10:32:06;;;;;;;0.50;0.40;;;28.20;55.50;;;;;;5087537;28;20062;-66
2021/07/06 10:34:42;;;;;;;2.70;0.40;;;28.40;55.20;;;;;;5079367;28;20499;-66
2021/07/06 10:37:30;;;;;;;0.40;0.40;;;28.50;54.60;;;;;;5090813;27;20028;-66
2021/07/06 10:40:12;;;;;;;0.47;0.45;;;28.60;53.90;;;;;;5088691;28;20035;-66
2021/07/06 10:42:39;;;;;;;0.60;0.45;;;28.70;52.20;;;;;;5079217;28;20032;-66
2021/07/06 10:45:33;;;;;;;0.40;0.40;;;28.80;54.90;;;;;;5086813;27;20093;-67
2021/07/06 10:47:58;;;;;;;0.35;0.35;;;28.90;52.50;;;;;;5085655;28;20056;-66
2021/07/06 10:50:30;;;;;;;0.77;0.30;;;28.90;54.10;;;;;;5087606;27;20075;-67
2021/07/06 10:53:24;;;;;;;0.32;0.32;;;29.00;51.80;;;;;;5086206;27;20043;-66
2021/07/06 10:56:05;;;;;;;1.02;0.40;;;29.10;53.20;;;;;;5087567;27;20412;-66
2021/07/06 10:59:03;;;;;;;0.80;0.40;;;29.10;51.80;;;;;;5088033;27;20379;-66
2021/07/06 11:01:40;;;;;;;0.52;0.40;;;29.30;53.00;;;;;;5077229;27;20050;-66
2021/07/06 11:04:11;;;;;;;2.30;0.55;;;29.30;51.70;;;;;;5085460;28;20538;-67
2021/07/06 11:06:46;;;;;;;1.88;0.50;;;29.40;52.20;;;;;;5088941;27;20043;-66
2021/07/06 11:09:35;;;;;;;0.57;0.57;;;29.40;48.20;;;;;;5085886;27;20066;-66
2021/07/06 11:12:26;;;;;;;2.28;0.47;;;29.40;50.50;;;;;;5057327;28;20028;-66
2021/07/06 11:14:57;;;;;;;0.57;0.45;;;29.40;50.90;;;;;;5086189;28;20031;-66
2021/07/06 11:17:38;;;;;;;0.70;0.52;;;29.30;51.50;;;;;;5087723;27;20050;-66
2021/07/06 11:20:08;;;;;;;0.75;0.60;;;29.30;50.40;;;;;;5089444;28;20028;-66
2021/07/06 11:22:49;;;;;;;0.77;0.60;;;29.30;51.60;;;;;;5084849;27;20054;-66
2021/07/06 11:25:24;;;;;;;0.77;0.75;;;29.30;50.20;;;;;;5087999;27;20042;-67
2021/07/06 11:27:52;;;;;;;;;;;29.30;51.00;;;;;;5087950;28;20404;-66
2021/07/06 11:30:36;;;;;;;0.85;0.60;;;29.30;50.70;;;;;;5087769;27;19916;-66
2021/07/06 11:33:09;;;;;;;0.60;0.60;;;29.30;50.10;;;;;;5085727;28;20067;-66
2021/07/06 11:35:46;;;;;;;0.75;0.75;;;29.30;49.50;;;;;;5084518;28;20492;-66
2021/07/06 11:38:13;;;;;;;1.60;0.80;;;29.10;50.50;;;;;;5085828;27;20114;-67
2021/07/06 11:40:41;;;;;;;1.40;0.50;;;29.10;50.70;;;;;;5085816;27;20042;-66
2021/07/06 11:43:08;;;;;;;1.00;0.80;;;28.90;51.30;;;;;;5080340;28;20724;-66
2021/07/06 11:45:36;;;;;;;1.50;0.70;;;28.90;51.20;;;;;;5086610;27;20399;-67
2021/07/06 11:48:12;;;;;;;0.73;0.73;;;28.70;52.20;;;;;;5087318;28;20024;-66
2021/07/06 11:50:40;;;;;;;0.93;0.90;;;28.70;52.70;;;;;;5086649;27;20119;-66
2021/07/06 11:53:06;;;;;;;0.95;0.80;;;28.70;52.30;;;;;;5079651;28;20028;-66
2021/07/06 11:55:34;;;;;;;0.95;0.82;;;28.60;52.90;;;;;;5086346;28;20028;-67
2021/07/06 11:58:01;;;;;;;2.60;0.80;;;28.50;52.70;;;;;;5088356;27;20043;-67
2021/07/06 12:00:29;;;;;;;0.93;0.80;;;28.40;53.00;;;;;;5088771;27;20376;-67
2021/07/06 12:03:21;;;;;;;4.68;0.95;;;28.40;52.70;;;;;;5085931;28;20461;-66
2021/07/06 12:05:53;;;;;;;1.58;1.00;;;28.30;51.80;;;;;;5082502;27;20036;-66
2021/07/06 12:08:27;;;;;;;3.17;1.00;;;28.10;53.00;;;;;;5087725;28;20554;-66
2021/07/06 12:11:10;;;;;;;0.90;0.90;;;28.10;52.70;;;;;;5086130;28;20044;-66
2021/07/06 12:13:49;;;;;;;1.80;0.80;;;28.00;53.00;;;;;;5082827;27;20137;-66
2021/07/06 12:16:26;;;;;;;1.27;0.90;;;27.90;52.90;;;;;;5084517;28;20083;-66
2021/07/06 12:18:53;;;;;;;1.95;1.10;;;27.70;53.10;;;;;;5084454;28;20067;-66
2021/07/06 12:21:30;;;;;;;1.27;0.80;;;27.60;53.30;;;;;;5084368;27;20051;-66
2021/07/06 12:24:21;;;;;;;1.15;0.93;;;27.50;53.60;;;;;;5085750;28;20035;-66
2021/07/06 12:26:49;;;;;;;0.80;0.80;;;27.40;54.00;;;;;;5076973;28;20065;-67
2021/07/06 12:29:31;;;;;;;1.10;1.10;;;27.40;54.60;;;;;;5088177;27;20036;-66
2021/07/06 12:32:00;;;;;;;2.55;1.00;;;27.30;54.20;;;;;;5087830;28;20028;-66
2021/07/06 12:34:46;;;;;;;1.27;0.93;;;27.30;54.50;;;;;;5081729;27;20024;-66
2021/07/06 12:37:15;;;;;;;1.42;0.90;;;27.30;54.70;;;;;;5084750;28;20523;-66
2021/07/06 12:39:43;;;;;;;1.10;1.10;;;27.30;54.90;;;;;;5099102;27;20040;-67
2021/07/06 12:42:15;;;;;;;1.27;1.00;;;27.40;55.00;;;;;;5101478;27;20036;-66
2021/07/06 12:44:46;;;;;;;1.20;1.10;;;27.40;55.10;;;;;;5081090;27;20182;-66
2021/07/06 12:47:37;;;;;;;1.75;1.17;;;27.40;55.80;;;;;;5085509;28;20035;-66
2021/07/06 12:50:12;;;;;;;1.45;1.00;;;27.50;54.80;;;;;;5087027;27;20161;-66
2021/07/06 12:52:43;;;;;;;1.00;1.00;;;27.50;55.00;;;;;;5076545;27;20028;-66
2021/07/06 12:55:14;;;;;;;2.67;1.25;;;27.50;55.20;;;;;;5086898;28;20103;-66
2021/07/06 12:57:42;;;;;;;1.20;1.10;;;27.60;55.50;;;;;;5085724;27;20450;-66